Time;durP1;ratioP1;P1;durP2;ratioP2;P2;SDS_P1;SDS_P2;PMS_P1;PMS_P2;Temp;Humidity;BMP_temperature;BMP_pressure;BME280_temperature;BME280_humidity;BME280_pressure;Samples;Min_cycle;Max_cycle;Signal;HPM_P1;HPM_P2
2021/06/19 00:00:40;;;;;;;25.52;17.63;;;;;;;22.34;51.82;98533.47;5087946;28;20036;-72
2021/06/19 00:03:06;;;;;;;26.65;16.92;;;;;;;22.30;51.74;98537.03;5089877;28;20096;-76
2021/06/19 00:05:32;;;;;;;23.30;17.40;;;;;;;22.27;51.93;98532.19;5087445;28;20056;-78
2021/06/19 00:07:58;;;;;;;28.63;17.77;;;;;;;22.23;51.99;98539.69;5087324;28;20111;-76
2021/06/19 00:10:24;;;;;;;23.20;16.55;;;;;;;22.22;51.87;98538.06;5087234;28;20104;-75
2021/06/19 00:12:52;;;;;;;25.77;18.30;;;;;;;22.19;51.91;98543.63;5088891;28;20051;-75
2021/06/19 00:15:20;;;;;;;27.10;18.05;;;;;;;22.14;52.05;98550.31;5088322;28;20028;-73
2021/06/19 00:17:45;;;;;;;25.02;18.00;;;;;;;22.09;52.23;98547.84;5087352;28;20112;-77
2021/06/19 00:20:14;;;;;;;20.58;16.90;;;;;;;22.07;52.17;98544.63;5088972;28;20118;-73
2021/06/19 00:22:41;;;;;;;22.58;17.58;;;;;;;22.03;52.13;98552.13;5087672;28;20024;-72
2021/06/19 00:25:08;;;;;;;23.52;17.65;;;;;;;22.00;52.39;98550.88;5088291;28;20051;-75
2021/06/19 00:27:34;;;;;;;26.92;18.20;;;;;;;21.96;52.32;98550.00;5088164;28;20032;-74
2021/06/19 00:29:59;;;;;;;24.13;17.00;;;;;;;21.93;52.47;98548.75;5088393;28;20570;-75
2021/06/19 00:32:25;;;;;;;25.85;16.50;;;;;;;21.87;52.58;98553.03;5089171;28;20031;-73
2021/06/19 00:34:50;;;;;;;27.58;17.30;;;;;;;21.80;52.68;98550.13;5089173;28;20388;-74
2021/06/19 00:37:15;;;;;;;24.42;16.48;;;;;;;21.73;52.60;98545.19;5088133;28;20023;-74
2021/06/19 00:39:41;;;;;;;26.42;17.45;;;;;;;21.71;52.70;98544.75;5088001;28;20097;-73
2021/06/19 00:42:06;;;;;;;29.08;18.00;;;;;;;21.71;52.77;98547.53;5087963;28;20023;-75
2021/06/19 00:44:32;;;;;;;27.38;17.30;;;;;;;21.67;53.08;98541.06;5087878;28;20023;-73
2021/06/19 00:46:58;;;;;;;26.48;18.38;;;;;;;21.68;53.06;98545.47;5063863;28;20723;-72
2021/06/19 00:49:25;;;;;;;27.30;17.73;;;;;;;21.63;53.05;98545.78;5058388;28;20032;-72
2021/06/19 00:51:51;;;;;;;25.95;18.13;;;;;;;21.63;53.30;98554.97;5063981;28;20113;-70
2021/06/19 00:54:17;;;;;;;26.77;18.33;;;;;;;21.60;53.43;98544.50;5065336;28;20115;-71
2021/06/19 00:56:43;;;;;;;28.27;18.92;;;;;;;21.61;53.23;98546.13;5066341;28;20039;-71
2021/06/19 00:59:09;;;;;;;26.25;17.80;;;;;;;21.62;53.32;98538.56;5081550;28;20027;-70
2021/06/19 01:01:35;;;;;;;28.38;19.67;;;;;;;21.60;53.50;98549.28;5088204;28;20028;-71
2021/06/19 01:04:01;;;;;;;32.08;19.65;;;;;;;21.58;53.67;98541.28;5087376;28;20020;-72
2021/06/19 01:06:27;;;;;;;31.38;19.50;;;;;;;21.54;53.48;98537.59;5086234;28;20043;-71
2021/06/19 01:08:52;;;;;;;31.77;20.20;;;;;;;21.45;53.54;98532.25;5085811;28;20028;-71
2021/06/19 01:11:21;;;;;;;29.42;19.35;;;;;;;21.39;53.82;98537.34;5084440;28;20035;-70
2021/06/19 01:13:48;;;;;;;32.33;18.92;;;;;;;21.34;54.11;98537.63;5087214;28;20027;-72
2021/06/19 01:16:15;;;;;;;25.48;18.92;;;;;;;21.30;54.00;98538.72;5087192;28;20055;-71
2021/06/19 01:18:41;;;;;;;29.15;18.70;;;;;;;21.27;54.07;98546.63;5087728;28;20103;-71
2021/06/19 01:21:21;;;;;;;27.20;19.95;;;;;;;21.24;54.09;98544.56;5087699;28;20115;-71
2021/06/19 01:23:47;;;;;;;27.92;20.15;;;;;;;21.23;54.39;98537.38;5087552;28;20039;-71
2021/06/19 01:26:26;;;;;;;28.70;19.40;;;;;;;21.21;54.26;98552.88;5087097;28;20028;-71
2021/06/19 01:28:53;;;;;;;30.90;19.58;;;;;;;21.19;54.44;98541.28;5087453;28;20028;-71
2021/06/19 01:31:19;;;;;;;25.10;17.73;;;;;;;21.16;54.38;98537.25;5087379;28;20031;-71
2021/06/19 01:33:47;;;;;;;33.50;17.98;;;;;;;21.14;54.33;98535.97;5087479;28;20104;-71
2021/06/19 01:36:13;;;;;;;26.45;18.13;;;;;;;21.10;54.59;98538.72;5086681;28;20038;-71
2021/06/19 01:38:40;;;;;;;29.30;18.23;;;;;;;21.07;54.66;98533.84;5087779;28;20036;-71
2021/06/19 01:41:12;;;;;;;31.30;18.00;;;;;;;21.05;54.75;98534.22;5086769;28;20047;-70
2021/06/19 01:43:38;;;;;;;26.77;18.02;;;;;;;21.02;55.01;98536.94;5087462;28;20107;-71
2021/06/19 01:46:03;;;;;;;24.60;17.17;;;;;;;21.01;55.06;98536.09;5086825;28;20115;-71
2021/06/19 01:48:28;;;;;;;27.25;18.30;;;;;;;21.00;54.83;98534.50;5087549;28;20025;-72
2021/06/19 01:50:54;;;;;;;31.90;18.90;;;;;;;20.97;55.07;98533.25;5087419;28;20472;-71
2021/06/19 01:53:19;;;;;;;27.55;19.00;;;;;;;20.97;55.31;98529.66;5084789;28;20084;-71
2021/06/19 01:55:45;;;;;;;26.98;18.17;;;;;;;20.93;55.00;98529.56;5085593;28;20546;-70
2021/06/19 01:58:11;;;;;;;26.80;18.17;;;;;;;20.91;55.26;98542.28;5084299;28;20430;-70
2021/06/19 02:00:36;;;;;;;29.08;18.20;;;;;;;20.88;55.61;98540.22;5084286;28;20055;-70
2021/06/19 02:03:05;;;;;;;24.27;17.10;;;;;;;20.84;55.67;98544.91;5085222;28;20032;-69
2021/06/19 02:05:30;;;;;;;24.70;17.70;;;;;;;20.78;55.47;98550.75;5085333;28;20143;-69
2021/06/19 02:07:57;;;;;;;27.13;18.50;;;;;;;20.73;54.97;98548.19;5085140;28;20032;-70
2021/06/19 02:10:26;;;;;;;29.50;18.17;;;;;;;20.71;55.70;98555.31;5087180;28;20135;-70
2021/06/19 02:12:52;;;;;;;32.08;18.80;;;;;;;20.71;56.03;98549.75;5086253;28;20548;-70
2021/06/19 02:15:19;;;;;;;26.90;18.38;;;;;;;20.68;56.00;98545.69;5087528;28;20036;-71
2021/06/19 02:17:44;;;;;;;27.95;18.35;;;;;;;20.68;56.07;98551.25;5086188;28;20153;-70
2021/06/19 02:20:11;;;;;;;25.45;17.98;;;;;;;20.64;56.07;98542.00;5086775;28;20028;-70
2021/06/19 02:22:37;;;;;;;29.35;18.80;;;;;;;20.65;56.06;98554.78;5086063;28;20111;-71
2021/06/19 02:25:04;;;;;;;32.22;19.05;;;;;;;20.67;56.17;98550.47;5088478;28;20501;-70
2021/06/19 02:27:30;;;;;;;26.52;18.33;;;;;;;20.66;56.29;98554.44;5086161;28;20024;-70
2021/06/19 02:29:55;;;;;;;29.38;18.67;;;;;;;20.65;56.25;98552.00;5087972;28;20617;-71
2021/06/19 02:32:20;;;;;;;29.95;19.45;;;;;;;20.66;56.18;98548.03;5088049;28;20030;-70
2021/06/19 02:34:46;;;;;;;25.65;18.00;;;;;;;20.65;56.20;98550.03;5087403;28;20032;-71
2021/06/19 02:37:11;;;;;;;27.65;19.30;;;;;;;20.63;56.21;98551.53;5087459;28;20038;-71
2021/06/19 02:39:36;;;;;;;28.67;18.05;;;;;;;20.59;56.42;98548.69;5088702;28;20020;-71
2021/06/19 02:42:02;;;;;;;27.25;18.80;;;;;;;20.57;56.50;98559.38;5087870;28;20028;-71
2021/06/19 02:44:27;;;;;;;28.40;18.50;;;;;;;20.53;56.60;98558.47;5087801;28;20078;-71
2021/06/19 02:46:52;;;;;;;27.63;17.85;;;;;;;20.51;56.72;98556.06;5086597;28;20040;-71
2021/06/19 02:49:18;;;;;;;28.02;18.77;;;;;;;20.48;56.68;98559.56;5086217;28;20051;-70
2021/06/19 02:51:43;;;;;;;28.92;18.40;;;;;;;20.48;56.84;98562.34;5087165;28;20051;-71
2021/06/19 02:54:09;;;;;;;24.25;18.10;;;;;;;20.47;56.75;98562.69;5086906;28;20024;-71
2021/06/19 02:56:34;;;;;;;27.17;18.17;;;;;;;20.45;56.94;98560.28;5087973;28;20144;-70
2021/06/19 02:58:59;;;;;;;28.67;19.05;;;;;;;20.44;56.99;98564.25;5087491;28;20511;-70
2021/06/19 03:01:25;;;;;;;30.10;18.42;;;;;;;20.47;57.06;98559.91;5085317;28;20505;-71
2021/06/19 03:03:50;;;;;;;26.90;18.48;;;;;;;20.47;57.14;98555.16;5086736;28;20032;-71
2021/06/19 03:06:16;;;;;;;26.50;18.15;;;;;;;20.48;57.17;98553.19;5085479;28;20064;-70
2021/06/19 03:08:42;;;;;;;22.75;18.13;;;;;;;20.46;57.39;98558.28;5087494;28;20043;-70
2021/06/19 03:11:08;;;;;;;27.52;18.27;;;;;;;20.46;57.40;98556.34;5086584;28;20387;-70
2021/06/19 03:13:33;;;;;;;25.85;18.33;;;;;;;20.47;57.32;98549.59;5086997;28;20032;-71
2021/06/19 03:15:58;;;;;;;25.90;18.42;;;;;;;20.46;57.35;98559.13;5087789;28;20499;-71
2021/06/19 03:18:24;;;;;;;26.17;17.90;;;;;;;20.41;57.41;98553.00;5086683;28;20491;-70
2021/06/19 03:20:49;;;;;;;24.70;17.92;;;;;;;20.39;57.35;98553.38;5087380;28;20092;-70
2021/06/19 03:23:15;;;;;;;27.45;18.55;;;;;;;20.37;57.39;98553.75;5085336;28;20486;-70
2021/06/19 03:25:42;;;;;;;25.30;18.45;;;;;;;20.36;57.69;98545.72;5088234;28;20044;-70
2021/06/19 03:28:09;;;;;;;28.55;18.42;;;;;;;20.41;57.64;98555.78;5084183;28;20024;-71
2021/06/19 03:30:36;;;;;;;25.52;19.17;;;;;;;20.42;57.77;98544.28;5090775;28;20062;-70
2021/06/19 03:33:03;;;;;;;26.48;19.15;;;;;;;20.46;57.83;98549.94;5090230;28;20067;-71
2021/06/19 03:35:30;;;;;;;27.70;20.00;;;;;;;20.46;57.99;98542.41;5091946;28;20121;-70
2021/06/19 03:37:56;;;;;;;30.65;19.48;;;;;;;20.46;57.86;98549.94;5089640;28;20780;-70
2021/06/19 03:40:23;;;;;;;28.20;20.50;;;;;;;20.42;57.98;98552.66;5089524;28;20059;-70
2021/06/19 03:42:50;;;;;;;28.98;19.75;;;;;;;20.42;58.24;98552.66;5091573;28;20043;-70
2021/06/19 03:45:16;;;;;;;31.08;21.50;;;;;;;20.42;58.37;98547.06;5088479;28;20024;-69
2021/06/19 03:47:43;;;;;;;33.92;20.50;;;;;;;20.45;58.23;98542.75;5090035;28;20105;-69
2021/06/19 03:50:11;;;;;;;32.85;21.52;;;;;;;20.46;58.37;98544.38;5090706;28;20353;-70
2021/06/19 03:52:37;;;;;;;28.33;20.20;;;;;;;20.53;58.55;98556.50;5089608;28;20024;-70
2021/06/19 03:55:04;;;;;;;29.38;19.98;;;;;;;20.61;58.39;98549.13;5090356;28;20464;-70
2021/06/19 03:57:32;;;;;;;31.33;20.60;;;;;;;20.66;58.56;98550.81;5090210;28;20040;-70
2021/06/19 03:59:57;;;;;;;27.95;19.60;;;;;;;20.72;58.54;98551.38;5089478;28;20479;-70
2021/06/19 04:02:24;;;;;;;27.73;18.38;;;;;;;20.74;58.70;98549.81;5085608;28;20086;-71
2021/06/19 04:04:50;;;;;;;29.63;19.85;;;;;;;20.75;58.41;98556.22;5087298;28;20040;-71
2021/06/19 04:07:16;;;;;;;25.50;19.38;;;;;;;20.76;58.45;98557.84;5088889;28;20105;-71
2021/06/19 04:09:43;;;;;;;24.70;18.65;;;;;;;20.73;58.55;98556.56;5088563;28;20558;-70
2021/06/19 04:12:09;;;;;;;30.08;19.65;;;;;;;20.79;58.65;98557.13;5089790;28;20020;-70
2021/06/19 04:14:35;;;;;;;28.27;18.77;;;;;;;20.78;58.78;98555.53;5087005;28;20085;-70
2021/06/19 04:17:00;;;;;;;25.10;19.60;;;;;;;20.79;58.85;98549.56;5088104;28;20028;-70
2021/06/19 04:19:25;;;;;;;32.50;20.23;;;;;;;20.86;58.67;98543.34;5082754;28;20086;-71
2021/06/19 04:21:50;;;;;;;28.88;19.65;;;;;;;20.90;58.79;98543.44;5085935;28;20074;-70
2021/06/19 04:24:16;;;;;;;30.90;21.02;;;;;;;20.94;58.84;98547.91;5085746;28;20740;-70
2021/06/19 04:26:42;;;;;;;29.98;19.77;;;;;;;20.96;58.86;98542.78;5088703;28;20476;-71
2021/06/19 04:29:07;;;;;;;28.45;19.13;;;;;;;20.98;58.95;98542.44;5085677;28;20058;-70
2021/06/19 04:31:32;;;;;;;30.65;20.08;;;;;;;20.95;59.17;98541.16;5090470;28;20016;-71
2021/06/19 04:33:58;;;;;;;29.60;19.33;;;;;;;20.97;59.13;98536.03;5091360;28;20032;-71
2021/06/19 04:36:25;;;;;;;33.75;21.17;;;;;;;20.97;59.11;98540.81;5088849;28;20047;-71
2021/06/19 04:38:50;;;;;;;30.50;20.67;;;;;;;21.01;59.15;98547.25;5091364;28;20059;-69
2021/06/19 04:44:07;;;;;;;31.17;21.05;;;;;;;21.07;59.39;98554.16;5090718;28;20028;-70
2021/06/19 04:46:33;;;;;;;28.13;20.88;;;;;;;21.12;59.33;98548.31;5090604;28;20028;-70
2021/06/19 04:48:58;;;;;;;31.45;21.00;;;;;;;21.18;59.46;98550.81;5090477;28;20063;-71
2021/06/19 04:51:24;;;;;;;31.50;20.35;;;;;;;21.19;59.48;98547.69;5084657;28;20028;-69
2021/06/19 04:53:52;;;;;;;32.13;21.55;;;;;;;21.18;59.63;98543.28;5086296;28;20028;-70
2021/06/19 04:56:17;;;;;;;27.77;21.10;;;;;;;21.24;59.37;98554.94;5087619;28;20024;-71
2021/06/19 04:58:44;;;;;;;30.02;21.00;;;;;;;21.29;59.61;98553.81;5089291;28;20077;-70
2021/06/19 05:01:09;;;;;;;33.03;21.23;;;;;;;21.30;59.53;98556.28;5086227;28;20414;-70
2021/06/19 05:03:35;;;;;;;32.90;21.02;;;;;;;21.37;59.68;98555.59;5088191;28;20090;-70
2021/06/19 05:06:01;;;;;;;27.52;20.52;;;;;;;21.44;59.36;98557.72;5087858;28;20048;-70
2021/06/19 05:08:26;;;;;;;31.02;20.77;;;;;;;21.49;59.67;98549.88;5086193;28;20032;-71
2021/06/19 05:10:52;;;;;;;29.75;21.20;;;;;;;21.57;59.38;98553.63;5090954;28;20050;-71
2021/06/19 05:13:18;;;;;;;31.92;20.33;;;;;;;21.64;59.60;98550.19;5090043;28;20034;-70
2021/06/19 05:15:44;;;;;;;32.35;21.45;;;;;;;21.69;59.45;98550.72;5084611;28;20097;-70
2021/06/19 05:18:09;;;;;;;30.45;20.80;;;;;;;21.74;59.38;98557.97;5081884;28;20397;-70
2021/06/19 05:20:34;;;;;;;29.73;20.67;;;;;;;21.82;59.43;98559.72;5088576;28;20032;-70
2021/06/19 05:23:00;;;;;;;31.83;20.98;;;;;;;21.88;59.38;98559.44;5088148;28;20487;-71
2021/06/19 05:25:27;;;;;;;28.73;20.50;;;;;;;21.89;59.41;98552.66;5089822;28;20027;-70
2021/06/19 05:27:52;;;;;;;28.20;20.35;;;;;;;21.94;59.39;98558.75;5089399;28;20139;-71
2021/06/19 05:30:18;;;;;;;30.75;19.92;;;;;;;22.03;59.32;98557.69;5085236;28;20091;-70
2021/06/19 05:32:44;;;;;;;28.30;20.23;;;;;;;22.10;59.15;98558.63;5088458;28;20016;-71
2021/06/19 05:35:10;;;;;;;27.15;18.88;;;;;;;22.18;58.96;98555.97;5085839;28;20047;-71
2021/06/19 05:37:35;;;;;;;29.17;19.95;;;;;;;22.26;58.96;98558.50;5088058;28;20476;-71
2021/06/19 05:40:00;;;;;;;27.45;19.35;;;;;;;22.36;59.01;98562.69;5088022;28;20032;-70
2021/06/19 05:42:26;;;;;;;25.60;18.52;;;;;;;22.46;58.74;98561.28;5084375;28;20035;-70
2021/06/19 05:44:51;;;;;;;32.33;17.50;;;;;;;22.52;58.85;98556.97;5087432;28;20102;-71
2021/06/19 05:47:17;;;;;;;26.90;18.80;;;;;;;22.60;58.63;98558.72;5088934;28;20054;-71
2021/06/19 05:49:42;;;;;;;22.70;16.15;;;;;;;22.68;58.53;98561.59;5089811;28;20036;-70
2021/06/19 05:52:07;;;;;;;21.60;17.33;;;;;;;22.73;58.24;98558.50;5086592;28;20027;-70
2021/06/19 05:54:36;;;;;;;29.55;19.00;;;;;;;22.78;58.37;98558.16;5089981;28;20051;-71
2021/06/19 05:57:03;;;;;;;26.17;17.95;;;;;;;22.83;58.42;98559.81;5086875;28;20019;-70
2021/06/19 05:59:28;;;;;;;31.02;19.30;;;;;;;22.87;58.54;98560.69;5089471;28;20021;-70
2021/06/19 06:01:54;;;;;;;27.65;19.27;;;;;;;22.93;58.27;98566.78;5089121;28;20024;-70
2021/06/19 06:04:20;;;;;;;39.28;18.45;;;;;;;22.96;58.30;98566.03;5085609;28;20062;-71
2021/06/19 06:06:45;;;;;;;25.17;18.33;;;;;;;23.02;58.22;98564.53;5088974;28;20036;-71
2021/06/19 06:09:10;;;;;;;27.23;19.85;;;;;;;23.08;58.23;98567.78;5090260;28;20028;-69
2021/06/19 06:11:36;;;;;;;28.00;19.52;;;;;;;23.14;58.09;98574.69;5090514;28;20039;-70
2021/06/19 06:14:01;;;;;;;27.88;20.83;;;;;;;23.18;58.23;98573.53;5091009;28;20097;-70
2021/06/19 06:16:26;;;;;;;27.40;19.45;;;;;;;23.29;58.27;98567.31;5091391;28;20028;-70
2021/06/19 06:18:52;;;;;;;29.88;19.83;;;;;;;23.37;58.20;98577.41;5090248;28;20062;-70
2021/06/19 06:21:17;;;;;;;26.63;18.77;;;;;;;23.42;58.17;98563.09;5090503;28;20032;-70
2021/06/19 06:23:42;;;;;;;26.83;19.10;;;;;;;23.51;58.20;98573.16;5090684;28;20081;-70
2021/06/19 06:26:08;;;;;;;33.25;20.13;;;;;;;23.58;58.24;98562.88;5091050;28;20089;-70
2021/06/19 06:28:33;;;;;;;28.50;19.95;;;;;;;23.66;58.12;98560.16;5090243;28;20043;-70
2021/06/19 06:30:59;;;;;;;26.92;18.95;;;;;;;23.72;58.32;98555.81;5091357;28;20052;-70
2021/06/19 06:33:26;;;;;;;25.98;19.17;;;;;;;23.73;57.96;98558.25;5090292;28;20107;-69
2021/06/19 06:35:53;;;;;;;36.92;20.73;;;;;;;23.73;57.59;98552.66;5090102;28;20102;-69
2021/06/19 06:38:19;;;;;;;30.33;20.35;;;;;;;23.79;58.03;98553.94;5088839;28;20024;-69
2021/06/19 06:40:44;;;;;;;27.42;20.13;;;;;;;23.86;57.80;98567.19;5091029;28;20031;-69
2021/06/19 06:43:09;;;;;;;25.40;19.45;;;;;;;23.91;57.52;98564.06;5089485;28;20555;-70
2021/06/19 06:45:35;;;;;;;28.92;19.45;;;;;;;23.97;57.22;98558.91;5089008;28;20070;-69
2021/06/19 06:48:00;;;;;;;28.17;19.83;;;;;;;24.05;57.35;98557.00;5088622;28;20043;-69
2021/06/19 06:50:26;;;;;;;27.20;20.70;;;;;;;24.10;57.21;98556.66;5088819;28;20024;-70
2021/06/19 06:52:53;;;;;;;26.67;19.27;;;;;;;24.19;57.07;98557.16;5088876;28;20016;-69
2021/06/19 06:55:18;;;;;;;38.85;20.40;;;;;;;24.25;56.78;98554.00;5090636;28;20036;-70
2021/06/19 06:57:45;;;;;;;26.73;18.45;;;;;;;24.30;56.92;98548.81;5088437;28;20074;-70
2021/06/19 07:00:11;;;;;;;24.67;19.00;;;;;;;24.38;56.68;98558.13;5089546;28;20492;-70
2021/06/19 07:02:41;;;;;;;24.05;18.23;;;;;;;24.46;56.57;98553.38;5087714;28;20729;-70
2021/06/19 07:05:08;;;;;;;29.73;18.83;;;;;;;24.51;56.11;98550.22;5091041;28;20043;-70
2021/06/19 07:07:34;;;;;;;23.98;18.48;;;;;;;24.53;56.17;98548.63;5090573;28;20024;-70
2021/06/19 07:09:59;;;;;;;25.58;18.70;;;;;;;24.59;56.07;98551.88;5093312;28;20042;-69
2021/06/19 07:12:24;;;;;;;28.83;19.70;;;;;;;24.65;56.06;98553.13;5093542;28;20028;-70
2021/06/19 07:14:50;;;;;;;23.38;18.65;;;;;;;24.72;56.08;98548.78;5093022;28;20024;-70
2021/06/19 07:17:15;;;;;;;32.35;18.40;;;;;;;24.76;56.05;98547.63;5091700;28;20160;-70
2021/06/19 07:19:43;;;;;;;25.73;18.35;;;;;;;24.85;55.77;98552.09;5091756;28;20074;-70
2021/06/19 07:22:09;;;;;;;29.10;18.95;;;;;;;24.90;55.66;98549.72;5093005;28;20020;-69
2021/06/19 07:24:34;;;;;;;20.35;16.92;;;;;;;24.95;55.27;98546.56;5089354;28;20035;-69
2021/06/19 07:27:00;;;;;;;27.85;18.00;;;;;;;25.00;55.12;98541.78;5092320;28;20060;-69
2021/06/19 07:29:25;;;;;;;25.85;17.40;;;;;;;25.04;55.14;98549.00;5093841;28;20415;-70
2021/06/19 07:31:51;;;;;;;22.65;18.38;;;;;;;25.11;55.45;98545.41;5093258;28;20027;-69
2021/06/19 07:34:16;;;;;;;25.70;18.10;;;;;;;25.20;55.76;98551.50;5091660;28;20038;-69
2021/06/19 07:36:43;;;;;;;25.50;19.00;;;;;;;25.33;55.60;98539.94;5094260;28;20016;-70
2021/06/19 07:39:08;;;;;;;27.67;17.88;;;;;;;25.41;55.26;98533.16;5093346;28;20066;-69
2021/06/19 07:41:34;;;;;;;21.92;15.43;;;;;;;25.51;54.89;98531.59;5093506;28;20032;-69
2021/06/19 07:43:59;;;;;;;21.08;16.17;;;;;;;25.59;55.03;98538.03;5092937;28;20151;-70
2021/06/19 07:46:25;;;;;;;26.17;16.70;;;;;;;25.67;54.31;98529.25;5090838;28;20024;-70
2021/06/19 07:48:50;;;;;;;22.85;16.10;;;;;;;25.73;54.40;98521.25;5089819;28;20571;-70
2021/06/19 07:51:15;;;;;;;24.15;16.27;;;;;;;25.83;54.18;98537.31;5091484;28;20506;-69
2021/06/19 07:53:41;;;;;;;28.15;16.60;;;;;;;25.89;53.61;98526.50;5091630;28;20040;-70
2021/06/19 07:56:06;;;;;;;29.00;16.00;;;;;;;25.95;53.42;98527.72;5092970;28;20035;-70
2021/06/19 07:58:32;;;;;;;26.45;16.35;;;;;;;26.00;53.39;98518.88;5090901;28;20401;-70
2021/06/19 08:00:57;;;;;;;20.48;15.80;;;;;;;26.08;53.35;98522.50;5090620;28;20036;-72
2021/06/19 08:03:22;;;;;;;23.83;16.10;;;;;;;26.15;53.14;98516.94;5092948;28;20035;-71
2021/06/19 08:05:48;;;;;;;22.60;16.23;;;;;;;26.20;52.50;98520.53;5091969;28;20048;-72
2021/06/19 08:08:13;;;;;;;20.67;15.43;;;;;;;26.25;52.31;98522.97;5092933;28;20028;-71
2021/06/19 08:10:39;;;;;;;33.42;15.65;;;;;;;26.28;52.25;98522.94;5088908;28;20051;-71
2021/06/19 08:13:04;;;;;;;24.75;16.33;;;;;;;26.34;52.57;98516.94;5062959;28;20031;-72
2021/06/19 08:15:31;;;;;;;22.45;17.35;;;;;;;26.40;52.49;98515.31;5060165;28;20051;-72
2021/06/19 08:17:57;;;;;;;26.80;16.98;;;;;;;26.49;52.63;98521.34;5064033;28;20047;-72
2021/06/19 08:20:22;;;;;;;23.67;15.95;;;;;;;26.56;52.44;98526.16;5065686;28;20028;-73
2021/06/19 08:22:48;;;;;;;22.48;14.90;;;;;;;26.62;52.00;98521.75;5079022;28;20510;-73
2021/06/19 08:25:13;;;;;;;21.38;15.60;;;;;;;26.68;51.65;98531.38;5067208;28;20040;-73
2021/06/19 08:27:39;;;;;;;21.60;16.30;;;;;;;26.73;51.43;98524.53;5066177;28;20032;-73
2021/06/19 08:30:06;;;;;;;18.13;14.95;;;;;;;26.80;51.55;98532.97;5066347;28;20414;-73
2021/06/19 08:32:31;;;;;;;21.27;15.95;;;;;;;26.87;51.63;98523.72;5065472;28;20048;-73
2021/06/19 08:34:57;;;;;;;18.95;14.57;;;;;;;26.94;50.75;98529.34;5060305;28;20055;-71
2021/06/19 08:37:22;;;;;;;23.77;14.50;;;;;;;26.98;51.09;98530.13;5056984;28;20032;-73
2021/06/19 08:39:47;;;;;;;28.38;17.15;;;;;;;27.10;51.18;98533.75;5065695;28;20893;-72
2021/06/19 08:42:13;;;;;;;19.55;14.52;;;;;;;27.19;50.92;98539.72;5065890;28;20036;-72
2021/06/19 08:44:43;;;;;;;26.38;15.38;;;;;;;27.26;50.82;98530.47;5065197;28;20028;-73
2021/06/19 08:47:09;;;;;;;20.92;15.43;;;;;;;27.31;50.32;98527.19;5064831;28;20032;-72
2021/06/19 08:49:35;;;;;;;21.13;15.20;;;;;;;27.39;50.43;98531.59;5077035;28;20039;-72
2021/06/19 08:52:01;;;;;;;22.77;14.48;;;;;;;27.45;50.38;98534.81;5066635;28;20499;-72
2021/06/19 08:54:27;;;;;;;20.70;15.45;;;;;;;27.52;50.35;98534.78;5060967;28;20364;-72
2021/06/19 08:56:52;;;;;;;20.35;15.10;;;;;;;27.57;49.75;98530.75;5057312;28;20488;-73
2021/06/19 08:59:18;;;;;;;17.88;14.25;;;;;;;27.64;49.88;98531.50;5059383;28;20403;-72
2021/06/19 09:01:44;;;;;;;22.10;16.08;;;;;;;27.69;49.64;98527.47;5065638;28;20185;-72
2021/06/19 09:04:11;;;;;;;16.80;13.85;;;;;;;27.77;49.55;98526.19;5067796;28;20634;-71
2021/06/19 09:06:38;;;;;;;25.80;17.85;;;;;;;27.83;49.00;98523.78;5065347;28;20047;-73
2021/06/19 09:09:05;;;;;;;20.45;15.52;;;;;;;27.90;49.19;98520.09;5065635;28;20612;-71
2021/06/19 09:11:40;;;;;;;19.33;15.02;;;;;;;27.99;49.01;98519.63;5066606;28;20020;-71
2021/06/19 09:14:07;;;;;;;21.13;18.38;;;;;;;28.05;48.45;98515.97;5065267;28;20847;-73
2021/06/19 09:16:33;;;;;;;20.58;16.05;;;;;;;28.14;48.87;98524.00;5056777;28;20032;-71
2021/06/19 09:18:59;;;;;;;23.27;14.50;;;;;;;28.14;47.96;98517.53;5056835;28;20062;-73
2021/06/19 09:21:36;;;;;;;21.33;16.40;;;;;;;28.18;47.91;98521.13;5064736;28;20086;-74
2021/06/19 09:24:01;;;;;;;20.38;14.55;;;;;;;28.22;47.27;98519.09;5064521;28;20792;-72
2021/06/19 09:26:31;;;;;;;16.95;14.20;;;;;;;28.24;47.62;98522.31;5075757;28;20032;-72
2021/06/19 09:29:04;;;;;;;20.13;15.27;;;;;;;28.29;47.09;98518.25;5066691;28;20121;-72
2021/06/19 09:31:48;;;;;;;29.95;15.63;;;;;;;28.30;47.25;98520.66;5064450;28;20488;-72
2021/06/19 09:34:14;;;;;;;22.60;16.02;;;;;;;28.36;46.95;98518.16;5065965;28;20825;-72
2021/06/19 09:36:57;;;;;;;20.45;14.68;;;;;;;28.44;47.48;98519.72;5057778;28;20044;-72
2021/06/19 09:39:25;;;;;;;37.72;26.52;;;;;;;28.55;47.14;98525.25;5056250;28;20032;-73
2021/06/19 09:41:54;;;;;;;19.65;15.65;;;;;;;28.59;47.02;98525.25;5059076;28;20381;-71
2021/06/19 09:44:37;;;;;;;21.10;16.88;;;;;;;28.65;46.81;98520.75;5066846;28;20113;-72
2021/06/19 09:47:03;;;;;;;17.30;14.40;;;;;;;28.70;46.90;98520.31;5067194;28;20111;-71
2021/06/19 09:49:34;;;;;;;35.35;23.48;;;;;;;28.77;46.44;98514.59;5061515;28;20123;-72
2021/06/19 09:52:00;;;;;;;34.88;22.83;;;;;;;28.79;45.89;98522.66;5065254;28;20066;-71
2021/06/19 09:54:26;;;;;;;19.77;14.10;;;;;;;28.81;45.62;98517.41;5063960;28;20959;-70
2021/06/19 09:56:53;;;;;;;21.27;16.67;;;;;;;28.89;46.04;98516.13;5059411;28;20063;-72
2021/06/19 09:59:29;;;;;;;23.92;17.25;;;;;;;28.96;45.39;98509.56;5055726;28;20428;-75
2021/06/19 10:01:57;;;;;;;19.40;15.80;;;;;;;29.02;45.72;98513.53;5056469;28;20654;-74
2021/06/19 10:04:25;;;;;;;20.63;15.13;;;;;;;29.07;45.34;98507.44;5066831;28;20051;-74
2021/06/19 10:06:52;;;;;;;18.98;13.85;;;;;;;29.14;45.17;98515.03;5064616;28;20029;-75
2021/06/19 10:09:18;;;;;;;16.88;13.77;;;;;;;29.23;45.24;98511.69;5066006;28;20048;-73
2021/06/19 10:11:47;;;;;;;23.17;14.07;;;;;;;29.34;45.60;98508.75;5064854;28;20107;-74
2021/06/19 10:14:19;;;;;;;17.63;13.35;;;;;;;29.43;45.04;98511.06;5066609;28;20032;-74
2021/06/19 10:16:50;;;;;;;20.90;14.90;;;;;;;29.50;45.18;98508.94;5065472;28;20036;-73
2021/06/19 10:19:22;;;;;;;20.58;15.23;;;;;;;29.54;44.12;98506.09;5057623;28;20033;-75
2021/06/19 10:21:52;;;;;;;26.15;19.75;;;;;;;29.55;43.87;98508.47;5056221;28;20060;-72
2021/06/19 10:24:20;;;;;;;22.40;17.58;;;;;;;29.59;44.04;98497.13;5062164;28;21008;-72
2021/06/19 10:26:47;;;;;;;13.53;12.10;;;;;;;29.59;43.71;98497.13;5065080;28;20071;-72
2021/06/19 10:29:13;;;;;;;19.75;14.90;;;;;;;29.63;43.41;98497.09;5064242;28;20448;-74
2021/06/19 10:31:45;;;;;;;16.17;12.02;;;;;;;29.65;43.53;98495.41;5064928;28;20029;-73
2021/06/19 10:34:17;;;;;;;13.98;12.02;;;;;;;29.73;43.70;98492.50;5067699;28;20507;-73
2021/06/19 10:36:42;;;;;;;23.23;17.70;;;;;;;29.79;43.10;98491.59;5065193;28;20029;-72
2021/06/19 10:39:08;;;;;;;14.15;12.48;;;;;;;29.82;43.49;98495.59;5062779;28;20504;-73
2021/06/19 10:41:50;;;;;;;20.13;14.20;;;;;;;29.88;42.78;98491.06;5056983;28;20017;-72
2021/06/19 10:44:48;;;;;;;20.77;15.30;;;;;;;29.90;42.69;98494.28;5060260;28;20025;-72
2021/06/19 10:47:13;;;;;;;21.73;16.50;;;;;;;29.93;42.95;98486.94;5069638;28;20101;-70
2021/06/19 10:49:42;;;;;;;17.30;15.05;;;;;;;29.97;42.58;98479.22;5066930;28;20036;-72
2021/06/19 10:52:24;;;;;;;24.15;16.90;;;;;;;30.03;42.59;98471.88;5067313;28;20032;-72
2021/06/19 10:55:08;;;;;;;23.98;16.52;;;;;;;30.12;42.81;98469.31;5066605;28;20032;-71
2021/06/19 10:57:44;;;;;;;23.02;14.40;;;;;;;30.18;42.71;98469.63;5066750;28;20115;-72
2021/06/19 11:00:31;;;;;;;17.33;13.43;;;;;;;30.22;42.41;98470.34;5061609;28;20732;-71
2021/06/19 11:02:58;;;;;;;15.90;13.82;;;;;;;30.30;41.73;98463.34;5061756;28;20060;-72
2021/06/19 11:05:42;;;;;;;15.07;11.35;;;;;;;30.35;41.36;98464.09;5062521;28;20049;-71
2021/06/19 11:08:08;;;;;;;20.55;13.88;;;;;;;30.42;40.59;98464.75;5067715;28;20032;-73
2021/06/19 11:10:49;;;;;;;14.00;11.02;;;;;;;30.51;40.48;98460.56;5066477;28;20024;-71
2021/06/19 11:13:30;;;;;;;14.95;11.77;;;;;;;30.58;39.70;98466.09;5065420;28;20522;-72
2021/06/19 11:16:01;;;;;;;14.45;11.50;;;;;;;30.64;39.71;98458.72;5067607;28;20037;-73
2021/06/19 11:18:45;;;;;;;19.35;13.32;;;;;;;30.69;39.57;98454.59;5067872;28;20146;-74